createdAt,value
2017-05-02T00:00:33.965Z,0
2017-05-02T00:01:44.311Z,0
2017-05-02T00:02:54.353Z,0
2017-05-02T00:04:04.707Z,0
2017-05-02T00:05:15.065Z,0
2017-05-02T00:06:25.089Z,0
2017-05-02T00:07:35.432Z,0
2017-05-02T00:08:45.776Z,0
2017-05-02T00:09:56.161Z,0
2017-05-02T00:11:06.194Z,0
2017-05-02T00:12:16.276Z,0
2017-05-02T00:13:26.659Z,0
2017-05-02T00:14:37.243Z,0
2017-05-02T00:15:47.585Z,0
2017-05-02T00:16:57.617Z,0
2017-05-02T00:18:07.952Z,0
2017-05-02T00:19:18.304Z,0
2017-05-02T00:20:28.648Z,0
2017-05-02T00:21:38.988Z,0
2017-05-02T00:22:49.030Z,0
2017-05-02T00:23:59.376Z,0
2017-05-02T00:25:09.729Z,0
2017-05-02T00:26:19.771Z,0
2017-05-02T00:27:29.804Z,0
2017-05-02T00:28:40.159Z,0
2017-05-02T00:29:50.514Z,0
2017-05-02T00:31:00.855Z,0
2017-05-02T00:32:10.894Z,0
2017-05-02T00:33:21.242Z,0
2017-05-02T00:34:31.613Z,0
2017-05-02T00:35:41.663Z,0
2017-05-02T00:36:52.013Z,0
2017-05-02T00:38:02.366Z,0
2017-05-02T00:39:12.414Z,0
2017-05-02T00:40:22.137Z,0
2017-05-02T00:41:32.527Z,0
2017-05-02T00:42:42.886Z,0
2017-05-02T00:43:53.241Z,0
2017-05-02T00:45:03.598Z,0
2017-05-02T00:46:13.951Z,0
2017-05-02T00:47:24.323Z,0
2017-05-02T00:48:34.373Z,0
2017-05-02T00:49:44.725Z,0
2017-05-02T00:50:55.063Z,0
2017-05-02T00:52:05.400Z,0
2017-05-02T00:53:15.431Z,0
2017-05-02T00:54:25.787Z,0
2017-05-02T00:55:36.127Z,0
2017-05-02T00:56:46.472Z,0
2017-05-02T00:57:56.811Z,0
2017-05-02T00:59:06.837Z,0
2017-05-02T01:00:17.175Z,0
2017-05-02T01:01:27.524Z,0
2017-05-02T01:02:37.868Z,0
2017-05-02T01:03:47.927Z,0
2017-05-02T01:04:58.291Z,0
2017-05-02T01:06:08.638Z,0
2017-05-02T01:07:18.355Z,0
2017-05-02T01:08:28.402Z,0
2017-05-02T01:09:38.448Z,0
2017-05-02T01:10:48.481Z,0
2017-05-02T01:11:58.837Z,0
2017-05-02T01:13:09.174Z,0
2017-05-02T01:14:19.529Z,0
2017-05-02T01:15:29.874Z,0
2017-05-02T01:16:40.216Z,0
2017-05-02T01:17:50.600Z,0
2017-05-02T01:19:00.936Z,0
2017-05-02T01:20:11.310Z,0
2017-05-02T01:21:20.765Z,0
2017-05-02T01:22:31.098Z,0
2017-05-02T01:23:41.154Z,0
2017-05-02T01:24:51.488Z,0
2017-05-02T01:26:01.533Z,0
2017-05-02T01:27:11.559Z,0
2017-05-02T01:28:21.904Z,0
2017-05-02T01:29:32.265Z,0
2017-05-02T01:30:42.291Z,0
2017-05-02T01:31:52.327Z,0
2017-05-02T01:33:02.355Z,0
2017-05-02T01:34:12.728Z,0
2017-05-02T01:35:23.071Z,0
2017-05-02T01:36:33.418Z,0
2017-05-02T01:37:43.776Z,0
2017-05-02T01:38:53.802Z,0
2017-05-02T01:40:04.154Z,0
2017-05-02T01:41:13.897Z,0
2017-05-02T01:42:23.960Z,0
2017-05-02T01:43:34.317Z,0
2017-05-02T01:44:44.666Z,0
2017-05-02T01:45:54.933Z,0
2017-05-02T01:47:05.284Z,0
2017-05-02T01:48:15.638Z,0
2017-05-02T01:49:25.978Z,0
2017-05-02T01:50:36.321Z,0
2017-05-02T01:51:46.374Z,0
2017-05-02T01:52:56.739Z,0
2017-05-02T01:54:07.077Z,0
2017-05-02T01:55:17.431Z,0
2017-05-02T01:56:27.764Z,0
2017-05-02T01:57:38.105Z,0
2017-05-02T01:58:48.146Z,0
2017-05-02T01:59:58.509Z,0
2017-05-02T02:01:08.855Z,0
2017-05-02T02:02:19.202Z,0
2017-05-02T02:03:29.553Z,0
2017-05-02T02:04:39.901Z,0
2017-05-02T02:05:50.237Z,0
2017-05-02T02:07:00.617Z,0
2017-05-02T02:08:10.974Z,0
2017-05-02T02:09:21.332Z,0
2017-05-02T02:10:31.373Z,0
2017-05-02T02:11:41.716Z,0
2017-05-02T02:12:52.053Z,0
2017-05-02T02:14:02.413Z,0
2017-05-02T02:15:12.772Z,0
2017-05-02T02:16:23.138Z,0
2017-05-02T02:17:33.497Z,0
2017-05-02T02:18:43.527Z,0
2017-05-02T02:19:53.869Z,0
2017-05-02T02:21:04.221Z,0
2017-05-02T02:22:14.561Z,0
2017-05-02T02:23:24.909Z,0
2017-05-02T02:24:35.259Z,0
2017-05-02T02:25:45.616Z,0
2017-05-02T02:26:55.963Z,0
2017-05-02T02:28:05.714Z,0
2017-05-02T02:29:16.071Z,0
2017-05-02T02:30:26.444Z,0
2017-05-02T02:31:36.492Z,0
2017-05-02T02:32:46.843Z,0
2017-05-02T02:33:56.872Z,0
2017-05-02T02:35:07.230Z,0
2017-05-02T02:36:16.959Z,0
2017-05-02T02:37:27.285Z,0
2017-05-02T02:38:37.629Z,0
2017-05-02T02:39:47.997Z,0
2017-05-02T02:40:57.718Z,0
2017-05-02T02:42:08.068Z,0
2017-05-02T02:43:18.135Z,0
2017-05-02T02:44:28.479Z,0
2017-05-02T02:45:38.821Z,0
2017-05-02T02:46:48.842Z,0
2017-05-02T02:47:59.239Z,0
2017-05-02T02:49:09.595Z,0
2017-05-02T02:50:19.604Z,0
2017-05-02T02:51:29.322Z,0
2017-05-02T02:52:39.357Z,0
2017-05-02T02:53:49.695Z,0
2017-05-02T02:55:00.037Z,0
2017-05-02T02:56:10.374Z,0
2017-05-02T02:57:20.719Z,0
2017-05-02T02:58:30.749Z,0
2017-05-02T02:59:40.791Z,0
2017-05-02T03:00:50.503Z,0
2017-05-02T03:02:00.540Z,0
2017-05-02T03:33:02.861Z,8
2017-05-02T03:34:12.884Z,8
2017-05-02T03:35:22.891Z,12
2017-05-02T03:36:33.245Z,12
2017-05-02T03:37:43.288Z,12
2017-05-02T03:38:53.640Z,12
2017-05-02T03:40:03.981Z,16
2017-05-02T03:41:14.346Z,24
2017-05-02T03:42:24.070Z,24
2017-05-02T03:43:34.101Z,24
2017-05-02T03:44:44.454Z,24
2017-05-02T03:45:54.808Z,24
2017-05-02T03:47:05.148Z,28
2017-05-02T03:48:15.497Z,36
2017-05-02T03:49:24.901Z,44
2017-05-02T03:50:34.625Z,44
2017-05-02T03:51:44.968Z,48
2017-05-02T03:52:55.320Z,56
2017-05-02T03:54:05.682Z,60
2017-05-02T03:55:15.718Z,68
2017-05-02T03:56:26.068Z,76
2017-05-02T03:57:36.109Z,80
2017-05-02T03:58:46.471Z,88
2017-05-02T03:59:56.830Z,96
2017-05-02T04:01:07.178Z,100
2017-05-02T04:02:17.535Z,108
2017-05-02T04:03:27.897Z,124
2017-05-02T04:04:37.923Z,132
2017-05-02T04:05:47.977Z,136
2017-05-02T04:06:57.692Z,140
2017-05-02T04:08:08.086Z,144
2017-05-02T04:09:18.459Z,148
2017-05-02T04:10:27.866Z,152
2017-05-02T04:11:38.218Z,144
2017-05-02T04:12:47.923Z,136
2017-05-02T04:13:58.273Z,136
2017-05-02T04:15:08.622Z,136
2017-05-02T04:16:18.966Z,132
2017-05-02T04:17:29.304Z,128
2017-05-02T04:18:39.659Z,136
2017-05-02T04:19:50.002Z,140
2017-05-02T04:21:00.346Z,140
2017-05-02T04:22:10.682Z,148
2017-05-02T04:23:20.729Z,152
2017-05-02T04:24:30.762Z,164
2017-05-02T04:25:40.499Z,180
2017-05-02T04:26:50.544Z,204
2017-05-02T04:28:00.882Z,216
2017-05-02T04:29:11.237Z,228
2017-05-02T04:30:21.590Z,244
2017-05-02T04:31:31.949Z,268
2017-05-02T04:32:41.988Z,304
2017-05-02T04:33:52.355Z,320
2017-05-02T04:35:02.704Z,336
2017-05-02T04:36:13.067Z,352
2017-05-02T04:37:23.093Z,368
2017-05-02T04:38:33.450Z,372
2017-05-02T04:39:43.789Z,376
2017-05-02T04:40:54.134Z,388
2017-05-02T04:42:04.186Z,404
2017-05-02T04:43:14.538Z,428
2017-05-02T04:44:24.886Z,448
2017-05-02T04:45:35.229Z,448
2017-05-02T04:46:45.257Z,432
2017-05-02T04:47:55.609Z,448
2017-05-02T04:49:05.953Z,480
2017-05-02T04:50:15.995Z,512
2017-05-02T04:51:26.340Z,532
2017-05-02T04:52:36.683Z,552
2017-05-02T04:53:46.720Z,564
2017-05-02T04:54:57.064Z,584
2017-05-02T04:56:07.084Z,604
2017-05-02T04:57:17.114Z,608
2017-05-02T04:58:27.466Z,596
2017-05-02T04:59:37.833Z,624
2017-05-02T05:00:48.185Z,660
2017-05-02T05:01:58.222Z,700
2017-05-02T05:03:08.585Z,768
2017-05-02T05:04:18.945Z,840
2017-05-02T05:05:28.976Z,892
2017-05-02T05:06:39.363Z,964
2017-05-02T05:07:49.394Z,1024
2017-05-02T05:08:59.424Z,1048
2017-05-02T05:10:09.779Z,1048
2017-05-02T05:11:20.120Z,1064
2017-05-02T05:12:30.138Z,1088
2017-05-02T05:13:40.188Z,1100
2017-05-02T05:14:50.526Z,1116
2017-05-02T05:16:00.863Z,1180
2017-05-02T05:17:10.894Z,1272
2017-05-02T05:18:21.238Z,1372
2017-05-02T05:19:31.579Z,1484
2017-05-02T05:20:41.611Z,1692
2017-05-02T05:21:51.947Z,1980
2017-05-02T05:23:02.308Z,2296
2017-05-02T05:24:12.652Z,2412
2017-05-02T05:25:22.985Z,2264
2017-05-02T05:26:33.333Z,2124
2017-05-02T05:27:43.694Z,2056
2017-05-02T05:28:54.053Z,2004
2017-05-02T05:30:04.089Z,1960
2017-05-02T05:31:14.455Z,1952
2017-05-02T05:32:24.714Z,2004
2017-05-02T05:33:35.097Z,2056
2017-05-02T05:34:45.135Z,2060
2017-05-02T05:35:55.492Z,2080
2017-05-02T05:37:05.847Z,2124
2017-05-02T05:38:16.190Z,2184
2017-05-02T05:39:26.539Z,2196
2017-05-02T05:40:36.878Z,2160
2017-05-02T05:41:46.905Z,2232
2017-05-02T05:42:57.260Z,2352
2017-05-02T05:44:07.633Z,2556
2017-05-02T05:45:17.969Z,2772
2017-05-02T05:46:28.294Z,2904
2017-05-02T05:47:38.627Z,3032
2017-05-02T05:48:48.985Z,3152
2017-05-02T05:49:59.035Z,3320
2017-05-02T05:51:09.071Z,3536
2017-05-02T05:52:19.426Z,3676
2017-05-02T05:53:29.769Z,3540
2017-05-02T05:54:40.128Z,3452
2017-05-02T05:55:50.485Z,3392
2017-05-02T05:57:00.844Z,3460
2017-05-02T05:58:11.197Z,3888
2017-05-02T05:59:21.227Z,4172
2017-05-02T06:00:31.588Z,4076
2017-05-02T06:01:41.614Z,4148
2017-05-02T06:02:51.943Z,4592
2017-05-02T06:04:01.968Z,4724
2017-05-02T06:05:12.006Z,4840
2017-05-02T06:06:22.351Z,4848
2017-05-02T06:07:32.673Z,4992
2017-05-02T06:08:42.702Z,5712
2017-05-02T06:09:52.758Z,6596
2017-05-02T06:11:03.088Z,6196
2017-05-02T06:12:13.440Z,5764
2017-05-02T06:13:23.796Z,5316
2017-05-02T06:14:34.143Z,5480
2017-05-02T06:15:44.477Z,5220
2017-05-02T06:16:54.813Z,4832
2017-05-02T06:18:05.168Z,4852
2017-05-02T06:19:15.510Z,4324
2017-05-02T06:20:25.870Z,3724
2017-05-02T06:21:36.209Z,3800
2017-05-02T06:22:45.923Z,4112
2017-05-02T06:23:56.248Z,4092
2017-05-02T06:25:06.597Z,3912
2017-05-02T06:26:16.641Z,4584
2017-05-02T06:27:26.358Z,5220
2017-05-02T06:28:36.400Z,5752
2017-05-02T06:29:46.441Z,5988
2017-05-02T06:30:56.783Z,6280
2017-05-02T06:32:06.834Z,6572
2017-05-02T06:33:17.186Z,6744
2017-05-02T06:34:27.261Z,6692
2017-05-02T06:35:37.607Z,6456
2017-05-02T06:36:47.964Z,6264
2017-05-02T06:37:58.322Z,6276
2017-05-02T06:39:08.694Z,6340
2017-05-02T06:40:18.726Z,6392
2017-05-02T06:41:29.079Z,6504
2017-05-02T06:42:39.135Z,6444
2017-05-02T06:43:49.509Z,6284
2017-05-02T06:44:59.562Z,6196
2017-05-02T06:46:09.903Z,6312
2017-05-02T06:47:20.240Z,6468
2017-05-02T06:48:30.270Z,6956
2017-05-02T06:49:40.645Z,7772
2017-05-02T06:50:50.367Z,7888
2017-05-02T06:52:00.734Z,7484
2017-05-02T06:53:11.088Z,7388
2017-05-02T06:54:21.139Z,7204
2017-05-02T06:55:31.500Z,6924
2017-05-02T06:56:41.842Z,7104
2017-05-02T06:57:51.926Z,7872
2017-05-02T06:59:02.284Z,8136
2017-05-02T07:00:12.335Z,7268
2017-05-02T07:01:22.691Z,6304
2017-05-02T07:02:33.211Z,5956
2017-05-02T07:03:43.543Z,5752
2017-05-02T07:04:53.903Z,5656
2017-05-02T07:06:04.255Z,5624
2017-05-02T07:07:14.609Z,5756
2017-05-02T07:08:24.959Z,6060
2017-05-02T07:09:34.995Z,6284
2017-05-02T07:10:45.039Z,6508
2017-05-02T07:11:55.450Z,6788
2017-05-02T07:13:05.796Z,7568
2017-05-02T07:14:16.145Z,8712
2017-05-02T07:15:26.196Z,8284
2017-05-02T07:16:36.257Z,7836
2017-05-02T07:17:46.293Z,7868
2017-05-02T07:18:56.644Z,8296
2017-05-02T07:20:07.013Z,8068
2017-05-02T07:21:17.416Z,7668
2017-05-02T07:22:27.763Z,6784
2017-05-02T07:23:37.490Z,7132
2017-05-02T07:24:47.548Z,6568
2017-05-02T07:25:57.909Z,7144
2017-05-02T07:27:07.955Z,9380
2017-05-02T07:28:17.990Z,9772
2017-05-02T07:29:28.065Z,9736
2017-05-02T07:30:38.096Z,8916
2017-05-02T07:31:48.451Z,9496
2017-05-02T07:32:58.796Z,9740
2017-05-02T07:34:09.150Z,9972
2017-05-02T07:35:19.526Z,8340
2017-05-02T07:36:29.887Z,7396
2017-05-02T07:37:40.238Z,7644
2017-05-02T07:38:50.584Z,7668
2017-05-02T07:40:00.940Z,7488
2017-05-02T07:41:11.283Z,7588
2017-05-02T07:42:21.319Z,8124
2017-05-02T07:43:31.373Z,9672
2017-05-02T07:44:41.732Z,8028
2017-05-02T07:45:51.764Z,7072
2017-05-02T07:47:02.106Z,6848
2017-05-02T07:48:12.461Z,6700
2017-05-02T07:49:22.802Z,6560
2017-05-02T07:50:33.155Z,6668
2017-05-02T07:51:43.502Z,6904
2017-05-02T07:52:53.858Z,7120
2017-05-02T07:54:04.231Z,7424
2017-05-02T07:55:14.571Z,7500
2017-05-02T07:56:24.587Z,7592
2017-05-02T07:57:34.935Z,7792
2017-05-02T07:58:44.980Z,7872
2017-05-02T07:59:55.315Z,7944
2017-05-02T08:01:05.357Z,7992
2017-05-02T08:02:15.701Z,8132
2017-05-02T08:03:25.742Z,8068
2017-05-02T08:04:36.081Z,8064
2017-05-02T08:05:46.443Z,8060
2017-05-02T08:06:56.804Z,7988
2017-05-02T08:08:07.162Z,7860
2017-05-02T08:09:17.532Z,8080
2017-05-02T08:10:27.577Z,7880
2017-05-02T08:11:37.941Z,7968
2017-05-02T08:12:48.211Z,8012
2017-05-02T08:13:58.565Z,8200
2017-05-02T08:15:08.611Z,8352
2017-05-02T08:16:18.960Z,8408
2017-05-02T08:17:29.318Z,8520
2017-05-02T08:18:39.045Z,8908
2017-05-02T08:19:49.393Z,8468
2017-05-02T08:20:59.756Z,8928
2017-05-02T08:22:10.106Z,8388
2017-05-02T08:23:20.149Z,8424
2017-05-02T08:24:30.191Z,7952
2017-05-02T08:25:40.216Z,7688
2017-05-02T08:26:50.247Z,7372
2017-05-02T08:28:00.300Z,7284
2017-05-02T08:29:10.648Z,6972
2017-05-02T08:30:20.989Z,7024
2017-05-02T08:31:31.332Z,7260
2017-05-02T08:32:41.369Z,8280
2017-05-02T08:33:51.746Z,8332
2017-05-02T08:35:02.132Z,7788
2017-05-02T08:36:12.497Z,6792
2017-05-02T08:37:22.903Z,6140
2017-05-02T08:38:32.941Z,6500
2017-05-02T08:39:43.292Z,7452
2017-05-02T08:40:53.360Z,7460
2017-05-02T08:42:03.700Z,7328
2017-05-02T08:43:14.056Z,7412
2017-05-02T08:44:24.102Z,7216
2017-05-02T08:45:33.819Z,7180
2017-05-02T08:46:44.163Z,7092
2017-05-02T08:47:54.518Z,6996
2017-05-02T08:49:04.866Z,6952
2017-05-02T08:50:15.209Z,6832
2017-05-02T08:51:25.569Z,5552
2017-05-02T08:52:35.916Z,5700
2017-05-02T08:53:45.969Z,6416
2017-05-02T08:54:56.389Z,6596
2017-05-02T08:56:06.756Z,6860
2017-05-02T08:57:17.107Z,6844
2017-05-02T08:58:27.161Z,6688
2017-05-02T08:59:37.221Z,6588
2017-05-02T09:00:47.570Z,6652
2017-05-02T09:01:57.916Z,6876
2017-05-02T09:03:08.271Z,6856
2017-05-02T09:04:18.321Z,6796
2017-05-02T09:05:28.710Z,6852
2017-05-02T09:06:39.100Z,6856
2017-05-02T09:07:49.149Z,6884
2017-05-02T09:08:59.494Z,6920
2017-05-02T09:10:09.536Z,6940
2017-05-02T09:11:19.883Z,7008
2017-05-02T09:12:29.926Z,7016
2017-05-02T09:13:40.272Z,7024
2017-05-02T09:14:50.299Z,7024
2017-05-02T09:16:00.343Z,6992
2017-05-02T09:17:10.374Z,6972
2017-05-02T09:18:20.734Z,6968
2017-05-02T09:19:31.089Z,7000
2017-05-02T09:20:41.140Z,6996
2017-05-02T09:21:51.183Z,7004
2017-05-02T09:23:01.226Z,7116
2017-05-02T09:24:11.588Z,7268
2017-05-02T09:25:21.613Z,7564
2017-05-02T09:26:31.634Z,4608
2017-05-02T09:27:41.691Z,5844
2017-05-02T09:28:51.741Z,8076
2017-05-02T09:30:02.112Z,5772
2017-05-02T09:31:13.555Z,3572
2017-05-02T09:32:23.924Z,7168
2017-05-02T09:33:34.276Z,5668
2017-05-02T09:34:44.633Z,7332
2017-05-02T09:35:54.743Z,7292
2017-05-02T09:37:04.777Z,7248
2017-05-02T09:38:15.917Z,7248
2017-05-02T09:39:27.166Z,7260
2017-05-02T09:40:37.526Z,7292
2017-05-02T09:41:47.259Z,7296
2017-05-02T09:42:57.320Z,7304
2017-05-02T09:44:07.051Z,7320
2017-05-02T09:45:17.092Z,7336
2017-05-02T09:46:27.464Z,7392
2017-05-02T09:47:37.866Z,7420
2017-05-02T09:48:47.896Z,7464
2017-05-02T09:49:58.246Z,7508
2017-05-02T09:51:08.604Z,7488
2017-05-02T09:52:18.958Z,7608
2017-05-02T09:53:29.320Z,7644
2017-05-02T09:54:39.696Z,7416
2017-05-02T09:55:49.743Z,7588
2017-05-02T09:57:00.080Z,7748
2017-05-02T09:58:10.441Z,7864
2017-05-02T09:59:20.482Z,7776
2017-05-02T10:00:30.554Z,7564
2017-05-02T10:01:40.920Z,7716
2017-05-02T10:02:51.294Z,7868
2017-05-02T10:04:01.664Z,8028
2017-05-02T10:05:11.763Z,8000
2017-05-02T10:06:22.109Z,7972
2017-05-02T10:07:32.170Z,8040
2017-05-02T10:08:42.241Z,7440
2017-05-02T10:09:52.589Z,8020
2017-05-02T10:11:02.637Z,8332
2017-05-02T10:12:12.992Z,8388
2017-05-02T10:13:22.825Z,8424
2017-05-02T10:14:33.190Z,8460
2017-05-02T10:15:43.225Z,8480
2017-05-02T10:16:53.588Z,8384
2017-05-02T10:18:03.976Z,8476
2017-05-02T10:19:14.334Z,8428
2017-05-02T10:20:24.053Z,8548
2017-05-02T10:21:34.392Z,8544
2017-05-02T10:22:44.732Z,8408
2017-05-02T10:23:54.766Z,8356
2017-05-02T10:25:05.116Z,8340
2017-05-02T10:26:15.476Z,8340
2017-05-02T10:27:25.203Z,8348
2017-05-02T10:28:35.543Z,8280
2017-05-02T10:29:45.900Z,7628
2017-05-02T10:30:55.934Z,8280
2017-05-02T10:32:05.972Z,8376
2017-05-02T10:33:16.319Z,8340
2017-05-02T10:34:26.052Z,8216
2017-05-02T10:35:36.085Z,8372
2017-05-02T10:36:46.146Z,8284
2017-05-02T10:37:56.496Z,8220
2017-05-02T10:39:05.915Z,8060
2017-05-02T10:40:16.263Z,8040
2017-05-02T10:41:26.613Z,8112
2017-05-02T10:42:36.967Z,8136
2017-05-02T10:43:47.350Z,8108
2017-05-02T10:44:57.393Z,8092
2017-05-02T10:46:07.745Z,8080
2017-05-02T10:47:18.091Z,8068
2017-05-02T10:48:28.446Z,8080
2017-05-02T10:49:38.793Z,8096
2017-05-02T10:50:48.841Z,8100
2017-05-02T10:51:59.216Z,8092
2017-05-02T10:53:09.570Z,8100
2017-05-02T10:54:19.934Z,8120
2017-05-02T10:55:30.277Z,8112
2017-05-02T10:56:40.311Z,8128
2017-05-02T10:57:50.653Z,8116
2017-05-02T10:59:01.017Z,8116
2017-05-02T11:00:11.370Z,8128
2017-05-02T11:01:21.727Z,8096
2017-05-02T11:02:32.086Z,8168
2017-05-02T11:03:42.451Z,8236
2017-05-02T11:04:52.185Z,8264
2017-05-02T11:06:02.558Z,8288
2017-05-02T11:07:12.923Z,8276
2017-05-02T11:08:22.957Z,8328
2017-05-02T11:09:33.323Z,8348
2017-05-02T11:10:43.717Z,8344
2017-05-02T11:11:54.058Z,8344
2017-05-02T11:13:04.102Z,8392
2017-05-02T11:14:14.451Z,8404
2017-05-02T11:15:24.830Z,8392
2017-05-02T11:16:34.878Z,8388
2017-05-02T11:17:44.920Z,8440
2017-05-02T11:18:54.997Z,8436
2017-05-02T11:20:05.339Z,8428
2017-05-02T11:21:15.687Z,8420
2017-05-02T11:22:26.048Z,8452
2017-05-02T11:23:36.413Z,8496
2017-05-02T11:24:46.161Z,8516
2017-05-02T11:25:56.506Z,8544
2017-05-02T11:27:06.854Z,7396
2017-05-02T11:28:16.891Z,8668
2017-05-02T11:29:27.253Z,8504
2017-05-02T11:30:37.604Z,8588
2017-05-02T11:31:47.630Z,8532
2017-05-02T11:32:57.674Z,8480
2017-05-02T11:34:08.018Z,8388
2017-05-02T11:35:18.366Z,8372
2017-05-02T11:36:28.719Z,8368
2017-05-02T11:37:39.096Z,8476
2017-05-02T11:38:49.461Z,8500
2017-05-02T11:39:59.805Z,8536
2017-05-02T11:41:10.175Z,8548
2017-05-02T11:42:20.562Z,8536
2017-05-02T11:43:30.902Z,8528
2017-05-02T11:44:41.256Z,8568
2017-05-02T11:45:51.293Z,8548
2017-05-02T11:47:01.392Z,8480
2017-05-02T11:48:11.744Z,8432
2017-05-02T11:49:21.847Z,8480
2017-05-02T11:50:32.199Z,8476
2017-05-02T11:51:42.243Z,8516
2017-05-02T11:52:52.602Z,8500
2017-05-02T11:54:02.662Z,8492
2017-05-02T11:55:13.014Z,8496
2017-05-02T11:56:23.404Z,8540
2017-05-02T11:57:33.457Z,8624
2017-05-02T11:58:43.812Z,8516
2017-05-02T11:59:54.170Z,8596
2017-05-02T12:01:04.543Z,8780
2017-05-02T12:02:14.597Z,8840
2017-05-02T12:03:24.952Z,8896
2017-05-02T12:04:35.304Z,8864
2017-05-02T12:05:45.666Z,8988
2017-05-02T12:06:56.027Z,9032
2017-05-02T12:08:06.064Z,9124
2017-05-02T12:09:16.414Z,9268
2017-05-02T12:10:26.462Z,9508
2017-05-02T12:11:36.835Z,9836
2017-05-02T12:12:47.237Z,10108
2017-05-02T12:13:57.584Z,10212
2017-05-02T12:15:07.626Z,10380
2017-05-02T12:16:17.961Z,11088
2017-05-02T12:17:28.308Z,11548
2017-05-02T12:18:38.679Z,11516
2017-05-02T12:19:48.722Z,11472
2017-05-02T12:20:58.136Z,11416
2017-05-02T12:22:08.224Z,11064
2017-05-02T12:23:18.577Z,10680
2017-05-02T12:24:28.938Z,10428
2017-05-02T12:25:39.293Z,10344
2017-05-02T12:26:49.642Z,10392
2017-05-02T12:27:59.990Z,10272
2017-05-02T12:29:09.718Z,10108
2017-05-02T12:30:20.068Z,10048
2017-05-02T12:31:30.435Z,10100
2017-05-02T12:32:40.800Z,10168
2017-05-02T12:33:50.857Z,10360
2017-05-02T12:35:01.215Z,10628
2017-05-02T12:36:11.585Z,10036
2017-05-02T12:37:21.937Z,10884
2017-05-02T12:38:32.293Z,10360
2017-05-02T12:39:42.025Z,11084
2017-05-02T12:40:52.415Z,11276
2017-05-02T12:42:02.470Z,11516
2017-05-02T12:43:12.836Z,11332
2017-05-02T12:44:23.237Z,11280
2017-05-02T12:45:33.605Z,6396
2017-05-02T12:46:43.652Z,10476
2017-05-02T12:47:54.010Z,10308
2017-05-02T12:49:04.375Z,9192
2017-05-02T12:50:14.765Z,5872
2017-05-02T12:51:25.129Z,5940
2017-05-02T12:52:35.497Z,5512
2017-05-02T12:53:45.844Z,4980
2017-05-02T12:56:55.938Z,4240
2017-05-02T12:58:06.336Z,4696
2017-05-02T12:59:16.705Z,8156
2017-05-02T13:00:26.781Z,5616
2017-05-02T13:01:36.505Z,5132
2017-05-02T13:02:46.857Z,6936
2017-05-02T13:03:57.213Z,5368
2017-05-02T13:05:07.603Z,5224
2017-05-02T13:06:17.678Z,5044
2017-05-02T13:07:28.027Z,4860
2017-05-02T13:08:38.332Z,4540
2017-05-02T13:09:48.729Z,4336
2017-05-02T13:10:59.083Z,4300
2017-05-02T13:12:09.429Z,4308
2017-05-02T13:13:19.790Z,4288
2017-05-02T13:14:30.182Z,4272
2017-05-02T13:15:40.541Z,4088
2017-05-02T13:16:50.907Z,4012
2017-05-02T13:18:00.986Z,4016
2017-05-02T13:19:11.030Z,3996
2017-05-02T13:20:21.393Z,4184
2017-05-02T13:21:31.752Z,4212
2017-05-02T13:22:41.782Z,3812
2017-05-02T13:23:52.151Z,3684
2017-05-02T13:25:02.535Z,3760
2017-05-02T13:26:12.928Z,3820
2017-05-02T13:27:23.280Z,3792
2017-05-02T13:28:33.662Z,3808
2017-05-02T13:29:44.022Z,3796
2017-05-02T13:30:54.426Z,3992
2017-05-02T13:32:04.465Z,4304
2017-05-02T13:33:14.814Z,4404
2017-05-02T13:34:24.846Z,4284
2017-05-02T13:35:35.288Z,4404
2017-05-02T13:36:45.644Z,4616
2017-05-02T13:37:56.006Z,4732
2017-05-02T13:39:06.394Z,4964
2017-05-02T13:40:16.790Z,5188
2017-05-02T13:41:27.185Z,5384
2017-05-02T13:42:37.577Z,9256
2017-05-02T13:43:47.678Z,10060
2017-05-02T13:44:58.076Z,8712
2017-05-02T13:46:08.429Z,10124
2017-05-02T13:47:18.761Z,9780
2017-05-02T13:48:28.822Z,9512
2017-05-02T13:49:39.166Z,9304
2017-05-02T13:50:49.204Z,9104
2017-05-02T13:51:59.551Z,8908
2017-05-02T13:53:09.954Z,8632
2017-05-02T13:54:19.696Z,8556
2017-05-02T13:55:30.067Z,8572
2017-05-02T13:56:39.806Z,8568
2017-05-02T13:57:49.892Z,8428
2017-05-02T13:59:00.332Z,7988
2017-05-02T14:00:10.406Z,7752
2017-05-02T14:01:20.785Z,7580
2017-05-02T14:02:31.147Z,7600
2017-05-02T14:03:41.506Z,7484
2017-05-02T14:04:51.560Z,7524
2017-05-02T14:06:01.908Z,7344
2017-05-02T14:07:11.954Z,6992
2017-05-02T14:08:21.671Z,7032
2017-05-02T14:09:31.727Z,5688
2017-05-02T14:10:41.763Z,3712
2017-05-02T14:11:51.502Z,3556
2017-05-02T14:13:01.847Z,3764
2017-05-02T14:14:12.206Z,3928
2017-05-02T14:15:22.259Z,4044
2017-05-02T14:16:32.610Z,4128
2017-05-02T14:17:42.973Z,4264
2017-05-02T14:18:53.019Z,4484
2017-05-02T14:20:03.406Z,4612
2017-05-02T14:21:13.787Z,4636
2017-05-02T14:22:23.827Z,4752
2017-05-02T14:23:33.856Z,4680
2017-05-02T14:24:44.212Z,4632
2017-05-02T14:25:54.570Z,4712
2017-05-02T14:27:04.924Z,4768
2017-05-02T14:28:14.983Z,4928
2017-05-02T14:29:25.390Z,4720
2017-05-02T14:30:35.789Z,4300
2017-05-02T14:31:46.200Z,4100
2017-05-02T14:32:56.593Z,3988
2017-05-02T14:34:06.988Z,4108
2017-05-02T14:35:17.413Z,4104
2017-05-02T14:36:27.803Z,4016
2017-05-02T14:37:38.183Z,3936
2017-05-02T14:38:48.592Z,3900
2017-05-02T14:39:59.028Z,4368
2017-05-02T14:41:09.411Z,4584
2017-05-02T14:42:19.801Z,7140
2017-05-02T14:43:30.188Z,7008
2017-05-02T14:44:40.579Z,4484
2017-05-02T14:45:50.636Z,4608
2017-05-02T14:47:00.990Z,7824
2017-05-02T14:48:11.383Z,7964
2017-05-02T14:49:21.737Z,8008
2017-05-02T14:50:31.833Z,7888
2017-05-02T14:51:42.244Z,7592
2017-05-02T14:52:52.640Z,7352
2017-05-02T14:54:02.983Z,7260
2017-05-02T14:55:13.379Z,6956
2017-05-02T14:56:23.438Z,6896
2017-05-02T14:57:34.048Z,6920
2017-05-02T14:58:44.413Z,6812
2017-05-02T14:59:54.792Z,6788
2017-05-02T15:01:05.167Z,6772
2017-05-02T15:02:15.203Z,6764
2017-05-02T15:03:25.576Z,6684
2017-05-02T15:04:35.949Z,6496
2017-05-02T15:05:46.006Z,6468
2017-05-02T15:06:56.073Z,6440
2017-05-02T15:08:06.441Z,6348
2017-05-02T15:09:16.181Z,6256
2017-05-02T15:10:26.546Z,6168
2017-05-02T15:11:36.916Z,6260
2017-05-02T15:12:47.295Z,6304
2017-05-02T15:13:57.654Z,6388
2017-05-02T15:15:07.737Z,5352
2017-05-02T15:16:17.142Z,6164
2017-05-02T15:17:27.187Z,4620
2017-05-02T15:18:37.250Z,4332
2017-05-02T15:19:47.598Z,4660
2017-05-02T15:20:58.228Z,3980
2017-05-02T15:22:08.632Z,4156
2017-05-02T15:23:18.987Z,4240
2017-05-02T15:24:29.403Z,4216
2017-05-02T15:25:39.780Z,4848
2017-05-02T15:26:49.949Z,5348
2017-05-02T15:28:00.322Z,4252
2017-05-02T15:29:10.691Z,4792
2017-05-02T15:30:21.060Z,6196
2017-05-02T15:31:31.112Z,6052
2017-05-02T15:32:41.496Z,5836
2017-05-02T15:33:51.890Z,5608
2017-05-02T15:35:02.273Z,5572
2017-05-02T15:36:12.639Z,5512
2017-05-02T15:37:23.022Z,5456
2017-05-02T15:38:33.452Z,5520
2017-05-02T15:39:43.498Z,5636
2017-05-02T15:40:53.232Z,5684
2017-05-02T15:42:03.590Z,5704
2017-05-02T15:43:13.955Z,5792
2017-05-02T15:44:24.323Z,5912
2017-05-02T15:45:34.728Z,5848
2017-05-02T15:46:45.082Z,5860
2017-05-02T15:47:55.138Z,5884
2017-05-02T15:49:05.494Z,5772
2017-05-02T15:50:15.596Z,5672
2017-05-02T15:51:25.976Z,5536
2017-05-02T15:52:35.739Z,5552
2017-05-02T15:53:45.471Z,5660
2017-05-02T15:54:55.844Z,5676
2017-05-02T15:56:06.224Z,5576
2017-05-02T15:57:16.271Z,5380
2017-05-02T15:58:26.628Z,4320
2017-05-02T15:59:36.992Z,4800
2017-05-02T16:00:47.035Z,4612
2017-05-02T16:01:57.090Z,4624
2017-05-02T16:03:07.461Z,4592
2017-05-02T16:04:17.847Z,4568
2017-05-02T16:05:28.218Z,4632
2017-05-02T16:06:38.587Z,4656
2017-05-02T16:07:48.984Z,4684
2017-05-02T16:08:59.342Z,4492
2017-05-02T16:10:09.711Z,3716
2017-05-02T16:11:19.772Z,3704
2017-05-02T16:12:30.158Z,3660
2017-05-02T16:13:40.531Z,3420
2017-05-02T16:14:50.585Z,3148
2017-05-02T16:16:00.968Z,2972
2017-05-02T16:17:11.018Z,2836
2017-05-02T16:18:21.389Z,3176
2017-05-02T16:19:31.763Z,3556
2017-05-02T16:20:42.133Z,3456
2017-05-02T16:21:52.271Z,3392
2017-05-02T16:23:02.403Z,3392
2017-05-02T16:24:12.778Z,3364
2017-05-02T16:25:23.168Z,3244
2017-05-02T16:26:33.222Z,3136
2017-05-02T16:27:43.602Z,3068